Time;durP1;ratioP1;P1;durP2;ratioP2;P2;SDS_P1;SDS_P2;PMS_P1;PMS_P2;Temp;Humidity;BMP_temperature;BMP_pressure;BME280_temperature;BME280_humidity;BME280_pressure;Samples;Min_cycle;Max_cycle;Signal;HPM_P1;HPM_P2
2022/05/07 00:00:38;;;;;;;5.25;3.47;;;410.10;2355.20;;;;;;5053735;28;20033;-56
2022/05/07 00:03:04;;;;;;;6.13;3.63;;;409.90;2355.20;;;;;;5054308;28;20025;-56
2022/05/07 00:05:31;;;;;;;6.35;3.70;;;410.00;2355.20;;;;;;5053807;28;20031;-57
2022/05/07 00:07:57;;;;;;;5.35;3.08;;;410.00;2355.20;;;;;;5053483;28;20033;-56
2022/05/07 00:10:23;;;;;;;7.15;3.80;;;410.00;2355.20;;;;;;5053851;28;20056;-56
2022/05/07 00:12:49;;;;;;;6.35;3.95;;;409.90;2355.20;;;;;;5053834;28;20458;-56
2022/05/07 00:18:36;;;;;;;4.85;3.40;;;409.90;2355.20;;;;;;5053576;28;20044;-56
2022/05/07 00:21:02;;;;;;;8.30;4.63;;;409.80;2355.20;;;;;;5052520;28;20021;-56
2022/05/07 00:23:29;;;;;;;6.10;4.05;;;409.80;2355.20;;;;;;5050325;28;20047;-56
2022/05/07 00:25:55;;;;;;;5.60;3.67;;;409.80;2355.20;;;;;;5050681;28;20029;-56
2022/05/07 00:28:20;;;;;;;6.03;3.50;;;409.70;2355.20;;;;;;5050486;28;20025;-57
2022/05/07 00:30:46;;;;;;;4.53;3.38;;;409.60;2355.20;;;;;;5050624;28;20028;-57
2022/05/07 00:33:12;;;;;;;5.90;3.42;;;409.60;2355.20;;;;;;5050558;28;20437;-56
2022/05/07 00:35:38;;;;;;;6.40;3.90;;;409.70;2355.20;;;;;;5050039;28;20021;-56
2022/05/07 00:38:03;;;;;;;6.07;3.95;;;409.70;2355.20;;;;;;5050012;28;20056;-57
2022/05/07 00:40:29;;;;;;;8.25;4.30;;;409.70;2355.20;;;;;;5049683;28;20033;-57
2022/05/07 00:42:55;;;;;;;7.63;4.03;;;409.70;2355.20;;;;;;5049893;28;20029;-57
2022/05/07 00:45:20;;;;;;;6.50;3.75;;;409.60;2355.20;;;;;;5050327;28;20025;-57
2022/05/07 00:47:46;;;;;;;6.45;4.10;;;409.60;2355.20;;;;;;5050132;28;20097;-57
2022/05/07 00:52:56;;;;;;;6.25;3.58;;;409.70;2355.20;;;;;;5050323;28;20052;-57
2022/05/07 00:55:25;;;;;;;4.82;3.53;;;409.60;2355.20;;;;;;5050180;28;20471;-56
2022/05/07 00:57:51;;;;;;;5.10;2.88;;;409.60;2355.20;;;;;;5050067;28;20025;-57
2022/05/07 01:00:17;;;;;;;6.30;3.08;;;384.90;2329.60;;;;;;5049985;28;20090;-56
2022/05/07 01:02:43;;;;;;;5.15;3.15;;;384.80;2329.60;;;;;;5050008;28;20289;-56
2022/05/07 01:05:10;;;;;;;4.28;3.00;;;384.70;2329.60;;;;;;5050302;28;20029;-56
2022/05/07 01:07:36;;;;;;;6.70;3.80;;;384.80;2329.60;;;;;;5049608;28;20120;-56
2022/05/07 01:10:04;;;;;;;6.38;3.85;;;384.70;2329.60;;;;;;5049919;28;20064;-55
2022/05/07 01:12:30;;;;;;;4.82;2.88;;;384.80;2329.60;;;;;;5049968;28;20028;-56
2022/05/07 01:14:57;;;;;;;5.70;3.38;;;384.90;2329.60;;;;;;5049753;28;20033;-56
2022/05/07 01:17:23;;;;;;;5.60;3.38;;;384.70;2329.60;;;;;;5050160;28;20021;-56
2022/05/07 01:19:52;;;;;;;6.05;3.35;;;384.50;2329.60;;;;;;5049935;28;20065;-56
2022/05/07 01:22:19;;;;;;;7.88;4.38;;;384.40;2329.60;;;;;;5049789;28;20025;-56
2022/05/07 01:24:45;;;;;;;10.20;4.57;;;384.40;2329.60;;;;;;5049672;28;20120;-55
2022/05/07 01:27:10;;;;;;;7.22;4.10;;;384.40;2329.60;;;;;;5050258;28;20108;-56
2022/05/07 01:29:36;;;;;;;7.18;4.60;;;384.30;2329.60;;;;;;5049710;28;20031;-56
2022/05/07 01:32:02;;;;;;;5.68;3.85;;;384.30;2329.60;;;;;;5050111;28;20072;-56
2022/05/07 01:34:28;;;;;;;7.07;4.38;;;384.50;2329.60;;;;;;5049502;28;20031;-56
2022/05/07 01:36:54;;;;;;;6.07;3.88;;;384.60;2329.60;;;;;;5049399;28;20041;-56
2022/05/07 01:39:19;;;;;;;5.70;3.85;;;384.70;2329.60;;;;;;5049797;28;20378;-56
2022/05/07 01:41:45;;;;;;;4.50;2.88;;;384.60;2329.60;;;;;;5049591;28;20024;-56
2022/05/07 01:44:11;;;;;;;8.02;3.72;;;384.60;2329.60;;;;;;5049965;28;20032;-56
2022/05/07 01:49:20;;;;;;;4.05;3.20;;;384.70;2329.60;;;;;;5049716;28;20067;-57
2022/05/07 01:51:46;;;;;;;4.68;3.67;;;384.70;2329.60;;;;;;5049748;28;20053;-56
2022/05/07 01:54:12;;;;;;;5.18;3.58;;;384.70;2329.60;;;;;;5053250;28;20049;-56
2022/05/07 01:56:37;;;;;;;5.75;3.47;;;384.60;2329.60;;;;;;5053171;28;20087;-56
2022/05/07 01:59:03;;;;;;;5.47;3.15;;;384.70;2329.60;;;;;;5053425;28;20584;-56
2022/05/07 02:01:29;;;;;;;6.07;4.38;;;384.60;2329.60;;;;;;5053186;28;20473;-57
2022/05/07 02:03:54;;;;;;;4.57;3.40;;;384.60;2329.60;;;;;;5052918;28;20036;-56
2022/05/07 02:06:20;;;;;;;3.95;2.53;;;384.60;2329.60;;;;;;5053246;28;20032;-56
2022/05/07 02:08:46;;;;;;;5.50;3.17;;;384.60;2329.60;;;;;;5053304;28;20084;-56
2022/05/07 02:11:11;;;;;;;7.65;3.75;;;384.50;2329.60;;;;;;5053222;28;20025;-56
2022/05/07 02:13:37;;;;;;;4.95;3.72;;;384.40;2329.60;;;;;;5052736;28;20024;-55
2022/05/07 02:16:03;;;;;;;8.25;4.38;;;384.40;2329.60;;;;;;5052804;28;20108;-56
2022/05/07 02:18:29;;;;;;;6.15;3.85;;;384.50;2329.60;;;;;;5052886;28;20363;-56
2022/05/07 02:20:56;;;;;;;5.35;4.05;;;384.50;2329.60;;;;;;5052768;28;20044;-56
2022/05/07 02:23:22;;;;;;;6.05;3.22;;;384.40;2329.60;;;;;;5052860;28;20025;-56
2022/05/07 02:25:48;;;;;;;5.95;4.15;;;384.50;2329.60;;;;;;5052955;28;20087;-55
2022/05/07 02:28:14;;;;;;;6.95;3.97;;;384.50;2329.60;;;;;;5052759;28;20020;-56
2022/05/07 02:30:40;;;;;;;5.13;3.53;;;384.40;2329.60;;;;;;5052534;28;20483;-56
2022/05/07 02:33:06;;;;;;;5.28;3.53;;;384.30;2329.60;;;;;;5052767;28;20036;-56
2022/05/07 02:35:32;;;;;;;4.75;3.28;;;384.00;2329.60;;;;;;5053038;28;20032;-56
2022/05/07 02:37:58;;;;;;;5.07;3.45;;;384.00;1945.60;;;;;;5052085;28;20079;-57
2022/05/07 02:40:24;;;;;;;7.30;3.67;;;384.00;2099.20;;;;;;5052507;28;20514;-56
2022/05/07 02:42:49;;;;;;;5.80;3.22;;;384.10;2329.60;;;;;;5053006;28;20025;-56
2022/05/07 02:45:15;;;;;;;6.38;3.20;;;384.00;2329.60;;;;;;5052234;28;20474;-56
2022/05/07 02:47:42;;;;;;;7.07;3.88;;;384.10;2329.60;;;;;;5052348;28;20021;-56
2022/05/07 02:50:10;;;;;;;5.47;3.20;;;384.10;2329.60;;;;;;5052124;28;20414;-56
2022/05/07 02:52:37;;;;;;;5.32;3.35;;;384.10;2329.60;;;;;;5051962;28;20463;-56
2022/05/07 02:55:04;;;;;;;5.97;3.83;;;384.20;2329.60;;;;;;5052261;28;20025;-56
2022/05/07 02:57:30;;;;;;;6.30;3.55;;;384.30;2329.60;;;;;;5052312;28;20024;-56
2022/05/07 02:59:56;;;;;;;6.18;3.65;;;384.30;2329.60;;;;;;5051686;28;20498;-55
2022/05/07 03:02:22;;;;;;;5.03;3.70;;;384.30;2329.60;;;;;;5052203;28;20049;-56
2022/05/07 03:04:49;;;;;;;10.52;4.78;;;384.30;2329.60;;;;;;5051260;28;20032;-56
2022/05/07 03:07:15;;;;;;;6.78;4.13;;;384.30;2329.60;;;;;;5051610;28;20079;-56
2022/05/07 03:09:41;;;;;;;5.68;3.90;;;384.30;2329.60;;;;;;5051878;28;20124;-56
2022/05/07 03:12:07;;;;;;;6.85;3.72;;;384.30;2329.60;;;;;;5051912;28;20494;-56
2022/05/07 03:14:33;;;;;;;8.05;4.13;;;384.40;2329.60;;;;;;5051986;28;20033;-55
2022/05/07 03:16:59;;;;;;;5.28;3.22;;;384.40;2329.60;;;;;;5051993;28;20103;-55
2022/05/07 03:19:25;;;;;;;7.65;4.18;;;384.30;2329.60;;;;;;5051807;28;20040;-55
2022/05/07 03:21:51;;;;;;;5.10;3.25;;;384.30;2329.60;;;;;;5051749;28;20025;-56
2022/05/07 03:24:17;;;;;;;7.18;3.65;;;384.30;2329.60;;;;;;5051660;28;20470;-56
2022/05/07 03:26:43;;;;;;;5.53;3.63;;;384.40;2329.60;;;;;;5051591;28;20029;-56
2022/05/07 03:29:09;;;;;;;5.82;3.40;;;358.80;2329.60;;;;;;5051629;28;20025;-57
2022/05/07 03:31:35;;;;;;;9.23;4.00;;;384.40;2329.60;;;;;;5051173;28;20040;-57
2022/05/07 03:34:00;;;;;;;6.28;3.72;;;384.40;2329.60;;;;;;5051503;28;20074;-56
2022/05/07 03:36:26;;;;;;;5.97;3.70;;;384.40;2329.60;;;;;;5051238;28;20041;-56
2022/05/07 03:38:52;;;;;;;3.97;3.15;;;384.40;2329.60;;;;;;5051418;28;20496;-56
2022/05/07 03:41:19;;;;;;;4.22;3.03;;;384.40;2329.60;;;;;;5051341;28;20025;-56
2022/05/07 03:43:45;;;;;;;5.35;3.17;;;384.50;2329.60;;;;;;5051458;28;20103;-56
2022/05/07 03:46:11;;;;;;;5.30;3.20;;;384.50;2329.60;;;;;;5051152;28;20033;-56
2022/05/07 03:48:37;;;;;;;4.55;3.03;;;384.50;2329.60;;;;;;5051261;28;20025;-56
2022/05/07 03:51:03;;;;;;;4.93;2.90;;;384.50;2329.60;;;;;;5051387;28;20028;-56
2022/05/07 03:53:31;;;;;;;8.88;3.50;;;384.50;2329.60;;;;;;5051010;28;20455;-56
2022/05/07 03:56:08;;;;;;;5.25;3.58;;;384.60;2329.60;;;;;;5050811;28;20024;-57
2022/05/07 03:58:35;;;;;;;5.38;3.65;;;384.70;2329.60;;;;;;5050695;28;20043;-56
2022/05/07 04:01:01;;;;;;;5.05;3.25;;;384.70;2329.60;;;;;;5050984;28;20016;-56
2022/05/07 04:03:29;;;;;;;5.43;3.22;;;384.80;2329.60;;;;;;5050937;28;20534;-56
2022/05/07 04:05:55;;;;;;;5.50;3.70;;;384.70;2329.60;;;;;;5050437;28;20471;-56
2022/05/07 04:08:21;;;;;;;5.15;3.63;;;384.80;2329.60;;;;;;5050746;28;20035;-56
2022/05/07 04:10:47;;;;;;;7.05;4.38;;;384.90;2329.60;;;;;;5050940;28;20029;-56
2022/05/07 04:13:15;;;;;;;6.10;4.07;;;384.80;2329.60;;;;;;5050723;28;20564;-56
2022/05/07 04:15:43;;;;;;;8.02;4.57;;;384.70;2329.60;;;;;;5049961;28;20021;-57
2022/05/07 04:18:09;;;;;;;4.57;3.35;;;384.80;2329.60;;;;;;5051094;28;20094;-56
2022/05/07 04:20:35;;;;;;;7.72;3.97;;;384.90;2329.60;;;;;;5050578;28;20058;-56
2022/05/07 04:23:01;;;;;;;7.22;5.18;;;384.90;2329.60;;;;;;5050649;28;20024;-56
2022/05/07 04:25:27;;;;;;;7.78;6.43;;;384.90;2329.60;;;;;;5050429;28;20036;-56
2022/05/07 04:27:53;;;;;;;6.55;4.03;;;409.60;2355.20;;;;;;5050582;28;20029;-56
2022/05/07 04:30:20;;;;;;;5.70;4.20;;;409.60;2355.20;;;;;;5050655;28;20083;-55
2022/05/07 04:32:46;;;;;;;7.32;4.25;;;409.70;2355.20;;;;;;5050419;28;20071;-56
2022/05/07 04:35:12;;;;;;;5.93;4.10;;;409.80;2355.20;;;;;;5050586;28;20079;-56
2022/05/07 04:37:37;;;;;;;6.97;4.28;;;409.80;2355.20;;;;;;5049949;28;20052;-56
2022/05/07 04:40:05;;;;;;;5.78;3.60;;;409.90;2355.20;;;;;;5050332;28;20469;-56
2022/05/07 04:42:30;;;;;;;7.00;5.00;;;409.70;2355.20;;;;;;5050286;28;20106;-56
2022/05/07 04:44:56;;;;;;;6.90;5.05;;;409.70;2355.20;;;;;;5050295;28;20478;-56
2022/05/07 04:47:22;;;;;;;8.32;5.65;;;409.80;2355.20;;;;;;5050479;28;20516;-56
2022/05/07 04:49:47;;;;;;;9.25;5.85;;;409.90;2355.20;;;;;;5050015;28;20029;-55
2022/05/07 04:52:13;;;;;;;7.97;6.60;;;410.00;2355.20;;;;;;5050140;28;20087;-56
2022/05/07 04:54:39;;;;;;;7.18;5.35;;;410.00;2355.20;;;;;;5050421;28;20398;-56
2022/05/07 04:57:05;;;;;;;5.95;4.07;;;410.10;2355.20;;;;;;5050175;28;20025;-56
2022/05/07 04:59:30;;;;;;;7.35;4.18;;;409.90;2355.20;;;;;;5049892;28;20033;-55
2022/05/07 05:01:56;;;;;;;6.70;4.45;;;409.70;2355.20;;;;;;5049734;28;20052;-57
2022/05/07 05:04:22;;;;;;;6.20;4.00;;;409.60;2355.20;;;;;;5049971;28;20025;-56
2022/05/07 05:06:48;;;;;;;6.85;4.50;;;384.70;2329.60;;;;;;5049889;28;20450;-56
2022/05/07 05:09:14;;;;;;;7.20;5.20;;;384.80;2329.60;;;;;;5050235;28;20060;-56
2022/05/07 05:11:40;;;;;;;5.78;4.38;;;384.80;2329.60;;;;;;5050196;28;20102;-56
2022/05/07 05:16:51;;;;;;;5.70;3.97;;;384.90;2329.60;;;;;;5049914;28;20116;-56
2022/05/07 05:19:17;;;;;;;6.35;4.32;;;384.90;2329.60;;;;;;5050143;28;20166;-56
2022/05/07 05:21:43;;;;;;;7.43;4.90;;;384.80;2329.60;;;;;;5041527;28;20068;-56
2022/05/07 05:24:09;;;;;;;7.22;4.35;;;409.60;2355.20;;;;;;5032573;28;20036;-57
2022/05/07 05:26:35;;;;;;;6.60;4.40;;;409.60;2355.20;;;;;;5032727;28;20030;-57
2022/05/07 05:29:01;;;;;;;7.03;4.95;;;409.70;2355.20;;;;;;5036705;28;20467;-57
2022/05/07 05:31:28;;;;;;;7.85;4.55;;;409.70;2355.20;;;;;;5036928;28;20026;-57
2022/05/07 05:33:54;;;;;;;7.50;4.63;;;409.90;2355.20;;;;;;5036602;28;20033;-56
2022/05/07 05:36:20;;;;;;;6.93;4.60;;;410.00;2355.20;;;;;;5036364;28;20037;-55
2022/05/07 05:38:46;;;;;;;7.20;4.75;;;410.00;2355.20;;;;;;5036768;28;20156;-57
2022/05/07 05:41:12;;;;;;;5.95;4.72;;;410.00;2355.20;;;;;;5036479;28;20444;-56
2022/05/07 05:43:40;;;;;;;7.15;4.50;;;410.00;2355.20;;;;;;5036368;28;20035;-57
2022/05/07 05:46:05;;;;;;;10.15;4.78;;;410.10;2355.20;;;;;;5036329;28;20067;-57
2022/05/07 05:48:31;;;;;;;8.43;5.20;;;410.20;2355.20;;;;;;5036601;28;20021;-56
2022/05/07 05:50:57;;;;;;;7.63;5.13;;;410.20;2355.20;;;;;;5036587;28;20026;-55
2022/05/07 05:53:23;;;;;;;8.70;5.60;;;410.20;2355.20;;;;;;5036303;28;20529;-57
2022/05/07 05:55:48;;;;;;;7.07;5.00;;;410.20;2355.20;;;;;;5036467;28;20029;-57
2022/05/07 05:58:15;;;;;;;9.10;4.95;;;410.20;2355.20;;;;;;5035965;28;20048;-56
2022/05/07 06:00:41;;;;;;;6.20;4.50;;;410.20;2355.20;;;;;;5036339;28;20110;-56
2022/05/07 06:03:07;;;;;;;8.07;4.38;;;410.30;2355.20;;;;;;5036012;28;20117;-57
2022/05/07 06:05:33;;;;;;;7.55;4.90;;;410.30;2355.20;;;;;;5036289;28;20033;-56
2022/05/07 06:07:59;;;;;;;5.78;4.22;;;410.30;2355.20;;;;;;5035573;28;20475;-56
2022/05/07 06:10:26;;;;;;;10.43;6.65;;;435.20;2355.20;;;;;;5032812;28;20032;-57
2022/05/07 06:12:51;;;;;;;8.55;5.90;;;435.30;2355.20;;;;;;5033060;28;20021;-56
2022/05/07 06:15:17;;;;;;;12.65;9.35;;;435.40;2355.20;;;;;;5032840;28;20092;-56
2022/05/07 06:17:43;;;;;;;19.73;10.77;;;435.90;2355.20;;;;;;5033260;28;20053;-54
2022/05/07 06:20:09;;;;;;;12.70;8.50;;;460.80;2380.80;;;;;;5032865;28;20471;-57
2022/05/07 06:22:35;;;;;;;11.68;7.13;;;461.20;2380.80;;;;;;5032626;28;20539;-57
2022/05/07 06:27:45;;;;;;;15.95;13.93;;;486.60;2380.80;;;;;;5032563;28;20028;-56
2022/05/07 06:30:11;;;;;;;13.55;12.02;;;487.30;2380.80;;;;;;5032655;28;20033;-57
2022/05/07 06:32:40;;;;;;;13.93;10.75;;;512.90;2380.80;;;;;;5032647;28;20025;-56
2022/05/07 06:35:07;;;;;;;11.23;7.55;;;512.80;2380.80;;;;;;5032604;28;20044;-57
2022/05/07 06:37:35;;;;;;;10.23;7.40;;;512.90;2380.80;;;;;;5032262;28;20068;-58
2022/05/07 06:40:03;;;;;;;8.20;6.35;;;538.00;2406.40;;;;;;5031734;28;20037;-55
2022/05/07 06:42:29;;;;;;;10.68;9.45;;;564.00;2432.00;;;;;;5032217;28;20036;-56
2022/05/07 06:44:55;;;;;;;7.00;5.45;;;589.20;2432.00;;;;;;5032553;28;20030;-55
2022/05/07 06:47:21;;;;;;;8.43;5.65;;;563.80;2432.00;;;;;;5032271;28;20426;-57
2022/05/07 06:49:46;;;;;;;7.93;6.03;;;563.80;2432.00;;;;;;5032138;28;20022;-54
2022/05/07 06:52:12;;;;;;;10.68;7.13;;;538.50;2406.40;;;;;;5032574;28;20390;-57
2022/05/07 06:54:38;;;;;;;8.07;5.70;;;538.30;2406.40;;;;;;5031972;28;20399;-56
2022/05/07 06:57:04;;;;;;;11.43;6.00;;;538.30;2406.40;;;;;;5032650;28;20029;-57
2022/05/07 06:59:33;;;;;;;9.52;6.35;;;512.70;2380.80;;;;;;5032264;28;20034;-55
2022/05/07 07:01:59;;;;;;;7.38;5.13;;;512.30;2380.80;;;;;;5032234;28;20076;-57
2022/05/07 07:04:25;;;;;;;9.30;6.28;;;512.90;2380.80;;;;;;5032129;28;20025;-56
2022/05/07 07:06:51;;;;;;;11.55;7.15;;;537.60;2406.40;;;;;;5030565;28;20030;-55
2022/05/07 07:09:17;;;;;;;11.70;7.05;;;563.20;2432.00;;;;;;5029995;28;20606;-54
2022/05/07 07:11:43;;;;;;;9.90;6.82;;;589.50;2432.00;;;;;;5030496;28;20104;-54
2022/05/07 07:14:09;;;;;;;9.20;6.70;;;563.80;2432.00;;;;;;5030388;28;20029;-55
2022/05/07 07:16:36;;;;;;;11.63;8.25;;;589.30;2432.00;;;;;;5029912;28;20045;-55
2022/05/07 07:19:01;;;;;;;10.27;7.55;;;589.70;2432.00;;;;;;5030778;28;20116;-55
2022/05/07 07:21:27;;;;;;;9.95;7.55;;;614.50;2329.60;;;;;;5039305;28;20095;-57
2022/05/07 07:23:53;;;;;;;12.38;7.40;;;640.80;2048.00;;;;;;5040539;28;20026;-56
2022/05/07 07:26:20;;;;;;;8.75;7.05;;;640.30;2048.00;;;;;;5037889;28;20532;-56
2022/05/07 07:28:46;;;;;;;7.88;6.18;;;665.60;1971.20;;;;;;5040215;28;20016;-56
2022/05/07 07:31:13;;;;;;;7.18;6.47;;;691.40;1817.60;;;;;;5038175;28;20033;-56
2022/05/07 07:33:39;;;;;;;7.35;6.32;;;692.10;1766.40;;;;;;5045710;28;20040;-56
2022/05/07 07:36:07;;;;;;;6.75;6.03;;;691.60;1766.40;;;;;;5049057;28;20071;-56
2022/05/07 07:38:33;;;;;;;8.88;6.88;;;691.20;1766.40;;;;;;5049831;28;20040;-55
2022/05/07 07:40:58;;;;;;;9.15;7.07;;;691.70;1740.80;;;;;;5040014;28;20033;-56
2022/05/07 07:43:24;;;;;;;9.48;8.18;;;717.20;1689.60;;;;;;5038532;28;20021;-56
2022/05/07 07:48:34;;;;;;;11.13;9.95;;;742.40;1664.00;;;;;;5039196;28;20040;-56
2022/05/07 07:51:00;;;;;;;8.45;7.22;;;742.50;1612.80;;;;;;5037394;28;20109;-54
2022/05/07 07:53:26;;;;;;;7.90;6.43;;;717.30;1612.80;;;;;;5038244;28;20104;-56
2022/05/07 07:55:52;;;;;;;8.57;7.57;;;717.10;1664.00;;;;;;5029547;28;20017;-55
2022/05/07 07:58:18;;;;;;;9.25;7.68;;;717.50;1612.80;;;;;;5029121;28;20025;-57
2022/05/07 08:00:44;;;;;;;8.95;7.20;;;717.60;1587.20;;;;;;5028983;28;21239;-55
2022/05/07 08:03:16;;;;;;;13.88;8.10;;;717.50;1612.80;;;;;;5029498;28;20526;-55
2022/05/07 08:05:43;;;;;;;8.52;6.72;;;717.50;1587.20;;;;;;5029291;28;20103;-55
2022/05/07 08:13:42;;;;;;;8.70;7.07;;;692.10;1638.40;;;;;;5028853;28;20036;-55
2022/05/07 08:16:08;;;;;;;12.90;10.15;;;691.60;1689.60;;;;;;5048169;28;20115;-56
2022/05/07 08:18:37;;;;;;;9.05;8.15;;;666.30;1715.20;;;;;;5048697;28;20037;-58
2022/05/07 08:21:05;;;;;;;9.43;8.43;;;691.30;1715.20;;;;;;5041923;28;20033;-56
2022/05/07 08:23:31;;;;;;;9.00;6.18;;;716.80;1664.00;;;;;;5036111;28;20639;-57
2022/05/07 08:25:57;;;;;;;7.72;6.38;;;666.30;1740.80;;;;;;5040973;28;20541;-57
2022/05/07 08:28:26;;;;;;;9.77;6.18;;;665.60;1766.40;;;;;;5048724;28;20024;-55
2022/05/07 08:30:53;;;;;;;8.48;5.95;;;615.10;1868.80;;;;;;5048786;28;20068;-55
2022/05/07 08:33:19;;;;;;;9.77;5.70;;;640.50;1817.60;;;;;;5048450;28;20071;-56
2022/05/07 08:35:46;;;;;;;6.85;6.05;;;640.70;1817.60;;;;;;5045070;28;20075;-55
2022/05/07 08:38:12;;;;;;;7.88;5.88;;;640.70;1817.60;;;;;;5037341;28;20048;-53
2022/05/07 08:40:41;;;;;;;11.70;6.63;;;640.40;1843.20;;;;;;5033618;28;20039;-56
2022/05/07 08:43:08;;;;;;;7.28;5.57;;;614.90;1920.00;;;;;;5035366;28;20048;-55
2022/05/07 08:45:35;;;;;;;8.68;6.38;;;615.20;1894.40;;;;;;5038251;28;20112;-56
2022/05/07 08:48:01;;;;;;;8.30;6.00;;;614.60;1945.60;;;;;;5036822;28;20025;-56
2022/05/07 08:50:27;;;;;;;9.80;6.28;;;614.80;1920.00;;;;;;5037021;28;20104;-54
2022/05/07 08:52:53;;;;;;;7.97;6.13;;;615.00;1920.00;;;;;;5040320;28;20146;-57
2022/05/07 08:55:20;;;;;;;9.25;6.28;;;589.50;2022.40;;;;;;5033416;28;20071;-55
2022/05/07 08:57:47;;;;;;;10.48;6.35;;;615.10;1920.00;;;;;;5037111;28;20433;-58
2022/05/07 09:00:15;;;;;;;7.70;6.00;;;614.70;1971.20;;;;;;5041274;28;20052;-55
2022/05/07 09:02:48;;;;;;;8.18;5.60;;;614.60;1971.20;;;;;;5047911;28;20372;-56
2022/05/07 09:05:18;;;;;;;7.05;5.63;;;614.80;1971.20;;;;;;5048064;28;20473;-57
2022/05/07 09:07:56;;;;;;;8.80;5.53;;;615.00;1971.20;;;;;;5046649;28;20583;-56
2022/05/07 09:10:29;;;;;;;8.20;5.65;;;614.90;1971.20;;;;;;5036477;28;20454;-55
2022/05/07 09:13:00;;;;;;;;;;;615.00;1945.60;;;;;;5036681;28;20036;-55
2022/05/07 09:15:25;;;;;;;6.95;5.68;;;614.90;1971.20;;;;;;5037411;28;19908;-55
2022/05/07 09:17:51;;;;;;;8.32;5.15;;;614.60;1996.80;;;;;;5037221;28;20071;-55
2022/05/07 09:20:21;;;;;;;8.15;5.57;;;615.30;1971.20;;;;;;5036002;28;20663;-57
2022/05/07 09:22:55;;;;;;;8.07;6.10;;;614.80;1996.80;;;;;;5036982;28;20021;-55
2022/05/07 09:25:28;;;;;;;8.63;5.75;;;614.50;1996.80;;;;;;5037871;28;20028;-56
2022/05/07 09:27:58;;;;;;;8.57;4.68;;;614.50;1971.20;;;;;;5044061;28;20197;-56
2022/05/07 09:30:26;;;;;;;6.85;4.82;;;589.70;2022.40;;;;;;5048219;28;20060;-56
2022/05/07 09:32:55;;;;;;;7.28;5.13;;;589.60;2022.40;;;;;;5047993;28;20099;-55
2022/05/07 09:38:13;;;;;;;7.07;5.43;;;614.90;1920.00;;;;;;5048301;28;20056;-57
2022/05/07 09:40:43;;;;;;;7.40;5.15;;;614.50;1945.60;;;;;;5047935;28;20556;-56
2022/05/07 09:43:11;;;;;;;6.50;4.85;;;614.50;1945.60;;;;;;5048090;28;20025;-55
2022/05/07 09:45:38;;;;;;;7.43;5.40;;;589.70;1971.20;;;;;;5047201;28;20064;-57
2022/05/07 09:48:05;;;;;;;6.35;4.63;;;614.70;1945.60;;;;;;5048381;28;20593;-56
2022/05/07 09:58:33;;;;;;;9.30;5.28;;;615.20;1868.80;;;;;;5047571;28;20040;-55
2022/05/07 10:01:39;;;;;;;6.40;4.85;;;640.20;1894.40;;;;;;5047705;28;20032;-56
2022/05/07 10:04:23;;;;;;;6.63;5.35;;;640.70;1792.00;;;;;;5047624;28;20071;-56
2022/05/07 10:07:02;;;;;;;6.35;4.90;;;640.40;1817.60;;;;;;5047125;28;20029;-55
2022/05/07 10:09:49;;;;;;;7.75;4.72;;;640.40;1766.40;;;;;;5046917;28;20041;-55
2022/05/07 10:12:21;;;;;;;5.72;4.43;;;640.40;1792.00;;;;;;5047131;28;20056;-56
2022/05/07 10:14:47;;;;;;;6.18;4.88;;;640.20;1740.80;;;;;;5048783;28;20478;-56
2022/05/07 10:17:14;;;;;;;7.85;5.30;;;640.60;1740.80;;;;;;5050712;28;20028;-56
2022/05/07 10:19:45;;;;;;;5.30;4.40;;;640.80;1766.40;;;;;;5050636;28;20033;-56
2022/05/07 10:22:24;;;;;;;7.32;4.50;;;640.30;1766.40;;;;;;5050825;28;20037;-57
2022/05/07 10:25:04;;;;;;;7.20;4.50;;;640.70;1740.80;;;;;;5050921;28;20021;-55
2022/05/07 10:27:37;;;;;;;5.80;4.55;;;615.20;1817.60;;;;;;5050621;28;20032;-56
2022/05/07 10:30:21;;;;;;;6.47;5.38;;;640.00;1843.20;;;;;;5050554;28;20047;-55
2022/05/07 10:32:55;;;;;;;7.15;5.30;;;640.00;1817.60;;;;;;5050348;28;20116;-55
2022/05/07 10:35:40;;;;;;;6.22;4.50;;;640.20;1766.40;;;;;;5050466;28;20039;-55
2022/05/07 10:38:07;;;;;;;6.05;4.60;;;614.80;1792.00;;;;;;5050057;28;20049;-55
2022/05/07 10:40:36;;;;;;;7.80;5.22;;;614.90;1792.00;;;;;;5051091;28;20123;-56
2022/05/07 10:43:03;;;;;;;8.15;4.88;;;614.80;1817.60;;;;;;5052483;28;20029;-55
2022/05/07 10:45:40;;;;;;;6.55;4.32;;;615.20;1740.80;;;;;;5052563;28;20064;-60
2022/05/07 10:48:17;;;;;;;9.32;4.60;;;615.30;1715.20;;;;;;5052306;28;20112;-55
2022/05/07 10:50:51;;;;;;;6.90;5.00;;;615.10;1715.20;;;;;;5052337;28;20035;-56
2022/05/07 10:53:18;;;;;;;6.75;4.53;;;615.20;1715.20;;;;;;5052450;28;20035;-55
2022/05/07 10:55:43;;;;;;;6.50;4.20;;;640.00;1740.80;;;;;;5052357;28;20191;-60
2022/05/07 10:58:09;;;;;;;6.50;3.85;;;615.30;1689.60;;;;;;5052251;28;20029;-56
2022/05/07 11:00:36;;;;;;;5.03;4.07;;;615.20;1689.60;;;;;;5051801;28;20061;-59
2022/05/07 11:03:02;;;;;;;5.13;4.00;;;640.00;1689.60;;;;;;5051896;28;20033;-56
2022/05/07 11:05:31;;;;;;;5.60;3.95;;;640.10;1740.80;;;;;;5051700;28;20025;-57
2022/05/07 11:08:02;;;;;;;5.82;4.45;;;615.10;1664.00;;;;;;5051666;28;20430;-56
2022/05/07 11:10:28;;;;;;;6.00;3.85;;;615.30;1715.20;;;;;;5051688;28;20474;-55
2022/05/07 11:13:15;;;;;;;4.78;4.13;;;615.00;1638.40;;;;;;5052088;28;20705;-57
2022/05/07 11:15:41;;;;;;;5.15;3.70;;;615.10;1638.40;;;;;;5051871;28;20075;-56
2022/05/07 11:18:16;;;;;;;5.18;3.85;;;615.00;1638.40;;;;;;5051804;28;20411;-60
2022/05/07 11:20:41;;;;;;;5.53;4.30;;;614.90;1638.40;;;;;;5051713;28;20071;-57
2022/05/07 11:23:12;;;;;;;7.07;3.97;;;614.80;1664.00;;;;;;5051675;28;20048;-59
2022/05/07 11:25:37;;;;;;;5.47;4.03;;;640.10;1638.40;;;;;;5051101;28;20536;-61
2022/05/07 11:28:04;;;;;;;6.22;4.28;;;640.20;1561.60;;;;;;5051727;28;20028;-56
2022/05/07 11:30:29;;;;;;;4.78;4.13;;;640.10;1561.60;;;;;;5051615;28;20372;-56
2022/05/07 11:33:04;;;;;;;5.45;3.72;;;640.20;1561.60;;;;;;5051712;28;20036;-56
2022/05/07 11:35:29;;;;;;;5.53;3.30;;;640.20;1536.00;;;;;;5051893;28;20059;-56
2022/05/07 11:37:55;;;;;;;4.43;3.55;;;640.50;1536.00;;;;;;5050968;28;20100;-56
2022/05/07 11:40:29;;;;;;;4.53;3.85;;;615.30;1536.00;;;;;;5051395;28;20390;-56
2022/05/07 11:45:25;;;;;;;4.90;3.65;;;615.20;1536.00;;;;;;5051383;28;20391;-56
2022/05/07 11:45:40;;;;;;;5.47;3.70;;;640.10;1484.80;;;;;;5051386;28;20037;-57
2022/05/07 11:48:13;;;;;;;4.72;3.92;;;615.20;1484.80;;;;;;5051192;28;20029;-57
2022/05/07 11:50:59;;;;;;;4.57;3.30;;;615.00;1484.80;;;;;;5051291;28;20029;-57
2022/05/07 11:53:35;;;;;;;5.68;3.95;;;640.10;1510.40;;;;;;5050845;28;20029;-56
2022/05/07 11:56:05;;;;;;;4.20;3.30;;;640.10;1459.20;;;;;;5051143;28;20159;-56
2022/05/07 11:58:46;;;;;;;5.10;4.35;;;640.20;1459.20;;;;;;5051104;28;20102;-56
2022/05/07 12:01:28;;;;;;;6.50;3.60;;;640.40;1459.20;;;;;;5051070;28;20525;-56
2022/05/07 12:03:54;;;;;;;4.55;3.15;;;640.60;1459.20;;;;;;5050838;28;20115;-57
2022/05/07 12:06:30;;;;;;;3.20;2.78;;;640.40;1433.60;;;;;;5050957;28;20025;-56
2022/05/07 12:08:56;;;;;;;6.32;3.75;;;640.40;1433.60;;;;;;5050891;28;20033;-56
2022/05/07 12:11:23;;;;;;;4.70;3.72;;;640.30;1433.60;;;;;;5050786;28;20494;-56
2022/05/07 12:13:49;;;;;;;4.88;3.50;;;640.20;1459.20;;;;;;5050445;28;20098;-54
2022/05/07 12:18:59;;;;;;;5.28;3.75;;;640.40;1459.20;;;;;;5050462;28;20060;-57
2022/05/07 12:29:50;;;;;;;6.40;3.47;;;640.60;1433.60;;;;;;5050604;28;20055;-60
2022/05/07 12:32:20;;;;;;;5.63;3.90;;;640.20;1433.60;;;;;;5050163;28;20025;-60
2022/05/07 12:34:47;;;;;;;4.35;3.40;;;640.00;1433.60;;;;;;5050147;28;20021;-56
2022/05/07 12:37:13;;;;;;;3.58;2.78;;;615.00;1433.60;;;;;;5049402;28;20102;-55
2022/05/07 12:39:39;;;;;;;6.15;3.17;;;614.80;1459.20;;;;;;5050174;28;20037;-56
2022/05/07 12:42:06;;;;;;;4.63;3.80;;;615.00;1484.80;;;;;;5050010;28;20021;-56
2022/05/07 12:44:32;;;;;;;4.10;3.13;;;615.20;1459.20;;;;;;5050315;28;20036;-59
2022/05/07 12:46:58;;;;;;;4.93;3.47;;;640.10;1484.80;;;;;;5050232;28;20025;-56
2022/05/07 12:49:24;;;;;;;5.10;3.10;;;615.20;1459.20;;;;;;5050205;28;20512;-58
2022/05/07 12:51:51;;;;;;;4.45;3.38;;;640.00;1459.20;;;;;;5050479;28;20021;-56
2022/05/07 12:54:17;;;;;;;4.70;3.75;;;640.20;1459.20;;;;;;5049987;28;20033;-60
2022/05/07 12:56:44;;;;;;;4.93;3.58;;;615.30;1433.60;;;;;;5050222;28;20090;-57
2022/05/07 12:59:10;;;;;;;5.55;3.45;;;615.10;1433.60;;;;;;5050238;28;20087;-60
2022/05/07 13:01:36;;;;;;;3.63;3.15;;;640.10;1459.20;;;;;;5050010;28;20029;-55